Andoya, Norway

1:43 PM CET on February 09, 2016 (GMT +0100)
Andoya Air Base | | Change Station
CLOSE
Current Station
Airport
Location: Andoya,
Elevation: 43 ft
Nearby Weather Stations

Elev 43 ft 69.29 °N, 16.14 °E | Updated 23 minutes ago

Mostly Cloudy
Mostly Cloudy
36 °F
Feels Like 22 °F
N
32
Wind Variable Wind from NE

Today
High -- | Low -- °F
--% Chance of Precip.
Yesterday
High -- | Low -- °F
Precip. -- in
Pressure 28.94 in
Visibility 6.2 miles
Clouds Few 2200 ft
Mostly Cloudy 4000 ft
Windchill 22 °F
Dew Point 28 °F
Humidity 75%
Rainfall 0.00 in
Snow Depth Not available.
8:54 AM 3:26 PM
New Moon, 1% visible
METAR ENAN 091220Z 05028KT 9999 FEW022 BKN040 02/M02 Q0980
Pressure 28.94 in
Visibility 6.2 miles
Clouds Few 2200 ft
Mostly Cloudy 4000 ft
Windchill 22 °F
Dew Point 28 °F
Humidity 75%
Rainfall 0.00 in
Snow Depth Not available.
8:54 AM 3:26 PM
New Moon, 1% visible
METAR ENAN 091220Z 05028KT 9999 FEW022 BKN040 02/M02 Q0980

10-Day Weather Forecast

Almanac

Astronomy

Feb. 09, 2016 Rise Set
Actual Time
Civil Twilight
Nautical Twilight
Astronomical Twilight
Moon
Length of Visible Light
Length of Day
Tomorrow will be .
, % of the Moon is Illuminated

Today's Extremes

Country Highs Country Lows

Community

WunderPhotos

Upload Photos

1,891,589 photos uploaded!

WunderBlog® & News

Nearby

Air Quality

  Air Quality AQ Index Pollutant
Not available.

Snow Depth

Station Depth Elevation

Earthquake Activity

City Distance Mag. Time & Date
Minimum magnitude displayed is 2.5.

Coastal Water Temperatures

Place Temperature

Stations

Nearby Weather Stations

Station Location Temp. Windchill Dew Point Humidity Wind Precip. Elev Updated Type